sensor_id;sensor_type;location;lat;lon;timestamp;P1;durP1;ratioP1;P2;durP2;ratioP2
10651;SDS011;5374;42.742;23.266;2024-01-15T00:02:10;160.33;;;83.10;;
10651;SDS011;5374;42.742;23.266;2024-01-15T00:04:57;147.50;;;75.27;;
10651;SDS011;5374;42.742;23.266;2024-01-15T00:07:44;143.07;;;73.30;;
10651;SDS011;5374;42.742;23.266;2024-01-15T00:10:31;157.57;;;75.47;;
10651;SDS011;5374;42.742;23.266;2024-01-15T00:13:18;149.83;;;77.23;;
10651;SDS011;5374;42.742;23.266;2024-01-15T00:16:07;140.60;;;72.73;;
10651;SDS011;5374;42.742;23.266;2024-01-15T00:18:54;145.33;;;71.43;;
10651;SDS011;5374;42.742;23.266;2024-01-15T00:21:41;142.00;;;73.43;;
10651;SDS011;5374;42.742;23.266;2024-01-15T00:24:28;148.40;;;72.90;;
10651;SDS011;5374;42.742;23.266;2024-01-15T00:27:15;134.67;;;69.70;;
10651;SDS011;5374;42.742;23.266;2024-01-15T00:30:03;131.70;;;68.70;;
10651;SDS011;5374;42.742;23.266;2024-01-15T00:32:52;142.07;;;70.53;;
10651;SDS011;5374;42.742;23.266;2024-01-15T00:35:39;137.87;;;68.87;;
10651;SDS011;5374;42.742;23.266;2024-01-15T00:38:27;131.37;;;67.27;;
10651;SDS011;5374;42.742;23.266;2024-01-15T00:41:14;132.60;;;67.63;;
10651;SDS011;5374;42.742;23.266;2024-01-15T00:44:01;139.00;;;68.87;;
10651;SDS011;5374;42.742;23.266;2024-01-15T00:46:48;125.23;;;67.73;;
10651;SDS011;5374;42.742;23.266;2024-01-15T00:49:37;132.80;;;66.13;;
10651;SDS011;5374;42.742;23.266;2024-01-15T00:52:24;128.23;;;64.07;;
10651;SDS011;5374;42.742;23.266;2024-01-15T00:55:11;127.13;;;66.40;;
10651;SDS011;5374;42.742;23.266;2024-01-15T00:57:58;130.43;;;65.50;;
10651;SDS011;5374;42.742;23.266;2024-01-15T01:00:45;132.73;;;67.97;;
10651;SDS011;5374;42.742;23.266;2024-01-15T01:03:32;152.13;;;73.67;;
10651;SDS011;5374;42.742;23.266;2024-01-15T01:06:21;149.50;;;74.60;;
10651;SDS011;5374;42.742;23.266;2024-01-15T01:09:08;152.83;;;76.70;;
10651;SDS011;5374;42.742;23.266;2024-01-15T01:11:55;158.27;;;79.77;;
10651;SDS011;5374;42.742;23.266;2024-01-15T01:14:42;156.87;;;81.50;;
10651;SDS011;5374;42.742;23.266;2024-01-15T01:17:29;154.53;;;80.97;;
10651;SDS011;5374;42.742;23.266;2024-01-15T01:20:17;153.57;;;80.17;;
10651;SDS011;5374;42.742;23.266;2024-01-15T01:23:05;143.27;;;76.50;;
10651;SDS011;5374;42.742;23.266;2024-01-15T01:25:52;151.87;;;84.07;;
10651;SDS011;5374;42.742;23.266;2024-01-15T01:28:39;155.47;;;79.83;;
10651;SDS011;5374;42.742;23.266;2024-01-15T01:31:26;166.33;;;89.57;;
10651;SDS011;5374;42.742;23.266;2024-01-15T01:34:14;168.03;;;88.83;;
10651;SDS011;5374;42.742;23.266;2024-01-15T01:37:02;161.60;;;83.50;;
10651;SDS011;5374;42.742;23.266;2024-01-15T01:39:50;167.43;;;82.07;;
10651;SDS011;5374;42.742;23.266;2024-01-15T01:42:37;148.20;;;80.10;;
10651;SDS011;5374;42.742;23.266;2024-01-15T01:45:25;149.63;;;75.70;;
10651;SDS011;5374;42.742;23.266;2024-01-15T01:48:12;143.97;;;74.60;;
10651;SDS011;5374;42.742;23.266;2024-01-15T01:51:00;145.23;;;75.37;;
10651;SDS011;5374;42.742;23.266;2024-01-15T01:53:49;176.70;;;87.23;;
10651;SDS011;5374;42.742;23.266;2024-01-15T01:56:38;159.57;;;80.70;;
10651;SDS011;5374;42.742;23.266;2024-01-15T01:59:25;152.73;;;75.33;;
10651;SDS011;5374;42.742;23.266;2024-01-15T02:02:14;137.03;;;73.00;;
10651;SDS011;5374;42.742;23.266;2024-01-15T02:05:02;151.77;;;74.73;;
10651;SDS011;5374;42.742;23.266;2024-01-15T02:07:51;145.83;;;73.83;;
10651;SDS011;5374;42.742;23.266;2024-01-15T02:10:38;142.10;;;70.77;;
10651;SDS011;5374;42.742;23.266;2024-01-15T02:13:26;129.40;;;67.93;;
10651;SDS011;5374;42.742;23.266;2024-01-15T02:16:14;140.33;;;70.70;;
10651;SDS011;5374;42.742;23.266;2024-01-15T02:19:01;152.47;;;79.23;;
10651;SDS011;5374;42.742;23.266;2024-01-15T02:21:48;151.13;;;80.80;;
10651;SDS011;5374;42.742;23.266;2024-01-15T02:24:36;149.17;;;79.03;;
10651;SDS011;5374;42.742;23.266;2024-01-15T02:27:23;201.30;;;102.43;;
10651;SDS011;5374;42.742;23.266;2024-01-15T02:30:11;231.23;;;114.77;;
10651;SDS011;5374;42.742;23.266;2024-01-15T02:32:58;202.67;;;100.93;;
10651;SDS011;5374;42.742;23.266;2024-01-15T02:35:45;191.90;;;101.07;;
10651;SDS011;5374;42.742;23.266;2024-01-15T02:38:35;240.17;;;125.93;;
10651;SDS011;5374;42.742;23.266;2024-01-15T02:41:23;195.37;;;103.43;;
10651;SDS011;5374;42.742;23.266;2024-01-15T02:44:11;177.03;;;91.40;;
10651;SDS011;5374;42.742;23.266;2024-01-15T02:46:58;168.07;;;88.63;;
10651;SDS011;5374;42.742;23.266;2024-01-15T02:49:45;161.03;;;85.07;;
10651;SDS011;5374;42.742;23.266;2024-01-15T02:52:32;149.93;;;79.47;;
10651;SDS011;5374;42.742;23.266;2024-01-15T02:55:19;157.00;;;81.37;;
10651;SDS011;5374;42.742;23.266;2024-01-15T02:58:08;165.03;;;87.30;;
10651;SDS011;5374;42.742;23.266;2024-01-15T03:00:55;154.03;;;80.40;;
10651;SDS011;5374;42.742;23.266;2024-01-15T03:03:42;140.83;;;71.30;;
10651;SDS011;5374;42.742;23.266;2024-01-15T03:06:29;134.37;;;70.07;;
10651;SDS011;5374;42.742;23.266;2024-01-15T03:09:16;131.43;;;65.30;;
10651;SDS011;5374;42.742;23.266;2024-01-15T03:12:03;136.83;;;68.67;;
10651;SDS011;5374;42.742;23.266;2024-01-15T03:14:52;137.47;;;66.90;;
10651;SDS011;5374;42.742;23.266;2024-01-15T03:17:41;149.87;;;73.07;;
10651;SDS011;5374;42.742;23.266;2024-01-15T03:20:28;155.23;;;75.20;;
10651;SDS011;5374;42.742;23.266;2024-01-15T03:23:16;134.47;;;69.17;;
10651;SDS011;5374;42.742;23.266;2024-01-15T03:26:03;130.07;;;65.27;;
10651;SDS011;5374;42.742;23.266;2024-01-15T03:28:50;132.97;;;69.07;;
10651;SDS011;5374;42.742;23.266;2024-01-15T03:31:39;126.87;;;69.20;;
10651;SDS011;5374;42.742;23.266;2024-01-15T03:34:26;130.73;;;67.80;;
10651;SDS011;5374;42.742;23.266;2024-01-15T03:37:13;128.50;;;65.50;;
10651;SDS011;5374;42.742;23.266;2024-01-15T03:40:00;126.43;;;65.50;;
10651;SDS011;5374;42.742;23.266;2024-01-15T03:42:48;125.07;;;66.43;;
10651;SDS011;5374;42.742;23.266;2024-01-15T03:45:35;138.63;;;75.27;;
10651;SDS011;5374;42.742;23.266;2024-01-15T03:48:23;138.67;;;70.47;;
10651;SDS011;5374;42.742;23.266;2024-01-15T03:51:10;132.67;;;68.70;;
10651;SDS011;5374;42.742;23.266;2024-01-15T03:53:57;136.77;;;66.60;;
10651;SDS011;5374;42.742;23.266;2024-01-15T03:56:44;122.37;;;62.27;;
10651;SDS011;5374;42.742;23.266;2024-01-15T03:59:31;131.03;;;70.77;;
10651;SDS011;5374;42.742;23.266;2024-01-15T04:02:19;121.53;;;65.43;;
10651;SDS011;5374;42.742;23.266;2024-01-15T04:05:08;123.87;;;64.40;;
10651;SDS011;5374;42.742;23.266;2024-01-15T04:07:55;121.13;;;62.80;;
10651;SDS011;5374;42.742;23.266;2024-01-15T04:10:42;129.93;;;62.83;;
10651;SDS011;5374;42.742;23.266;2024-01-15T04:13:31;127.00;;;65.87;;
10651;SDS011;5374;42.742;23.266;2024-01-15T04:16:19;127.97;;;65.10;;
10651;SDS011;5374;42.742;23.266;2024-01-15T04:19:06;125.73;;;64.17;;
10651;SDS011;5374;42.742;23.266;2024-01-15T04:21:54;127.20;;;64.10;;
10651;SDS011;5374;42.742;23.266;2024-01-15T04:24:41;126.03;;;62.93;;
10651;SDS011;5374;42.742;23.266;2024-01-15T04:27:29;115.57;;;60.17;;
10651;SDS011;5374;42.742;23.266;2024-01-15T04:30:16;113.00;;;59.23;;
10651;SDS011;5374;42.742;23.266;2024-01-15T04:33:03;112.07;;;59.60;;
10651;SDS011;5374;42.742;23.266;2024-01-15T04:35:52;116.90;;;59.37;;
10651;SDS011;5374;42.742;23.266;2024-01-15T04:38:40;105.67;;;57.23;;
10651;SDS011;5374;42.742;23.266;2024-01-15T04:41:27;118.80;;;61.10;;
10651;SDS011;5374;42.742;23.266;2024-01-15T04:44:15;117.40;;;60.60;;
10651;SDS011;5374;42.742;23.266;2024-01-15T04:47:02;123.50;;;62.27;;
10651;SDS011;5374;42.742;23.266;2024-01-15T04:49:49;114.67;;;62.63;;
10651;SDS011;5374;42.742;23.266;2024-01-15T04:52:37;117.07;;;63.23;;
10651;SDS011;5374;42.742;23.266;2024-01-15T04:55:26;113.13;;;60.43;;
10651;SDS011;5374;42.742;23.266;2024-01-15T04:58:13;130.53;;;62.27;;
10651;SDS011;5374;42.742;23.266;2024-01-15T05:01:00;116.00;;;60.60;;
10651;SDS011;5374;42.742;23.266;2024-01-15T05:03:47;117.23;;;60.20;;
10651;SDS011;5374;42.742;23.266;2024-01-15T05:06:34;121.73;;;60.37;;
10651;SDS011;5374;42.742;23.266;2024-01-15T05:09:21;113.67;;;59.93;;
10651;SDS011;5374;42.742;23.266;2024-01-15T05:12:10;119.07;;;63.93;;
10651;SDS011;5374;42.742;23.266;2024-01-15T05:14:58;113.27;;;59.63;;
10651;SDS011;5374;42.742;23.266;2024-01-15T05:17:45;116.27;;;59.50;;
10651;SDS011;5374;42.742;23.266;2024-01-15T05:20:32;112.33;;;60.57;;
10651;SDS011;5374;42.742;23.266;2024-01-15T05:23:19;108.07;;;58.80;;
10651;SDS011;5374;42.742;23.266;2024-01-15T05:26:06;109.60;;;58.40;;
10651;SDS011;5374;42.742;23.266;2024-01-15T05:28:55;111.70;;;63.33;;
10651;SDS011;5374;42.742;23.266;2024-01-15T05:31:43;113.20;;;64.10;;
10651;SDS011;5374;42.742;23.266;2024-01-15T05:34:30;115.10;;;65.87;;
10651;SDS011;5374;42.742;23.266;2024-01-15T05:37:17;144.00;;;78.40;;
10651;SDS011;5374;42.742;23.266;2024-01-15T05:40:05;143.30;;;80.07;;
10651;SDS011;5374;42.742;23.266;2024-01-15T05:42:52;137.67;;;76.30;;
10651;SDS011;5374;42.742;23.266;2024-01-15T05:45:42;132.20;;;68.60;;
10651;SDS011;5374;42.742;23.266;2024-01-15T05:48:30;113.73;;;62.20;;
10651;SDS011;5374;42.742;23.266;2024-01-15T05:51:17;128.53;;;71.93;;
10651;SDS011;5374;42.742;23.266;2024-01-15T05:54:04;117.90;;;68.83;;
10651;SDS011;5374;42.742;23.266;2024-01-15T05:56:51;117.43;;;62.23;;
10651;SDS011;5374;42.742;23.266;2024-01-15T05:59:38;116.10;;;61.40;;
10651;SDS011;5374;42.742;23.266;2024-01-15T06:02:27;129.37;;;65.40;;
10651;SDS011;5374;42.742;23.266;2024-01-15T06:05:14;147.50;;;73.70;;
10651;SDS011;5374;42.742;23.266;2024-01-15T06:08:01;156.23;;;80.07;;
10651;SDS011;5374;42.742;23.266;2024-01-15T06:10:48;195.07;;;103.17;;
10651;SDS011;5374;42.742;23.266;2024-01-15T06:13:35;189.90;;;103.47;;
10651;SDS011;5374;42.742;23.266;2024-01-15T06:16:23;167.30;;;88.90;;
10651;SDS011;5374;42.742;23.266;2024-01-15T06:19:12;143.30;;;77.53;;
10651;SDS011;5374;42.742;23.266;2024-01-15T06:21:59;133.77;;;71.23;;
10651;SDS011;5374;42.742;23.266;2024-01-15T06:24:46;134.60;;;71.13;;
10651;SDS011;5374;42.742;23.266;2024-01-15T06:27:33;139.50;;;76.50;;
10651;SDS011;5374;42.742;23.266;2024-01-15T06:30:20;150.87;;;80.57;;
10651;SDS011;5374;42.742;23.266;2024-01-15T06:33:07;154.40;;;88.97;;
10651;SDS011;5374;42.742;23.266;2024-01-15T06:35:55;157.77;;;86.77;;
10651;SDS011;5374;42.742;23.266;2024-01-15T06:38:43;154.50;;;84.60;;
10651;SDS011;5374;42.742;23.266;2024-01-15T06:41:30;157.60;;;82.53;;
10651;SDS011;5374;42.742;23.266;2024-01-15T06:44:17;155.00;;;88.60;;
10651;SDS011;5374;42.742;23.266;2024-01-15T06:47:06;149.30;;;81.83;;
10651;SDS011;5374;42.742;23.266;2024-01-15T06:49:53;165.00;;;84.10;;
10651;SDS011;5374;42.742;23.266;2024-01-15T06:52:42;154.90;;;86.30;;
10651;SDS011;5374;42.742;23.266;2024-01-15T06:55:29;185.33;;;95.63;;
10651;SDS011;5374;42.742;23.266;2024-01-15T06:58:16;184.70;;;97.50;;
10651;SDS011;5374;42.742;23.266;2024-01-15T07:01:03;144.20;;;79.10;;
10651;SDS011;5374;42.742;23.266;2024-01-15T07:03:51;135.43;;;74.63;;
10651;SDS011;5374;42.742;23.266;2024-01-15T07:06:38;118.87;;;65.90;;
10651;SDS011;5374;42.742;23.266;2024-01-15T07:09:27;114.77;;;63.90;;
10651;SDS011;5374;42.742;23.266;2024-01-15T07:12:14;128.10;;;75.47;;
10651;SDS011;5374;42.742;23.266;2024-01-15T07:15:01;121.70;;;69.10;;
10651;SDS011;5374;42.742;23.266;2024-01-15T07:17:49;115.43;;;65.67;;
10651;SDS011;5374;42.742;23.266;2024-01-15T07:20:45;113.03;;;67.60;;
10651;SDS011;5374;42.742;23.266;2024-01-15T07:23:39;120.83;;;71.30;;
10651;SDS011;5374;42.742;23.266;2024-01-15T07:26:29;113.00;;;69.70;;
10651;SDS011;5374;42.742;23.266;2024-01-15T07:29:16;111.77;;;66.23;;
10651;SDS011;5374;42.742;23.266;2024-01-15T07:32:04;105.77;;;63.60;;
10651;SDS011;5374;42.742;23.266;2024-01-15T07:34:53;122.43;;;73.13;;
10651;SDS011;5374;42.742;23.266;2024-01-15T07:37:40;116.13;;;64.73;;
10651;SDS011;5374;42.742;23.266;2024-01-15T07:40:27;115.70;;;67.27;;
10651;SDS011;5374;42.742;23.266;2024-01-15T07:43:16;134.40;;;77.53;;
10651;SDS011;5374;42.742;23.266;2024-01-15T07:46:03;128.47;;;77.67;;
10651;SDS011;5374;42.742;23.266;2024-01-15T07:48:50;136.00;;;74.60;;
10651;SDS011;5374;42.742;23.266;2024-01-15T07:51:43;125.73;;;73.17;;
10651;SDS011;5374;42.742;23.266;2024-01-15T07:54:30;131.70;;;76.10;;
10651;SDS011;5374;42.742;23.266;2024-01-15T07:57:17;120.93;;;68.07;;
10651;SDS011;5374;42.742;23.266;2024-01-15T08:00:07;113.17;;;64.23;;
10651;SDS011;5374;42.742;23.266;2024-01-15T08:02:54;106.10;;;63.97;;
10651;SDS011;5374;42.742;23.266;2024-01-15T08:05:41;109.37;;;62.03;;
10651;SDS011;5374;42.742;23.266;2024-01-15T08:08:28;108.27;;;63.63;;
10651;SDS011;5374;42.742;23.266;2024-01-15T08:11:16;101.07;;;61.07;;
10651;SDS011;5374;42.742;23.266;2024-01-15T08:14:03;108.27;;;60.57;;
10651;SDS011;5374;42.742;23.266;2024-01-15T08:16:51;105.70;;;60.60;;
10651;SDS011;5374;42.742;23.266;2024-01-15T08:19:38;104.10;;;58.90;;
10651;SDS011;5374;42.742;23.266;2024-01-15T08:22:27;96.63;;;58.57;;
10651;SDS011;5374;42.742;23.266;2024-01-15T08:25:14;106.67;;;61.50;;
10651;SDS011;5374;42.742;23.266;2024-01-15T08:28:02;104.13;;;64.40;;
10651;SDS011;5374;42.742;23.266;2024-01-15T08:30:49;99.87;;;59.67;;
10651;SDS011;5374;42.742;23.266;2024-01-15T08:33:38;101.10;;;61.37;;
10651;SDS011;5374;42.742;23.266;2024-01-15T08:36:25;101.93;;;62.23;;
10651;SDS011;5374;42.742;23.266;2024-01-15T08:39:12;119.60;;;70.23;;
10651;SDS011;5374;42.742;23.266;2024-01-15T08:41:59;120.07;;;71.43;;
10651;SDS011;5374;42.742;23.266;2024-01-15T08:44:47;117.00;;;70.80;;
10651;SDS011;5374;42.742;23.266;2024-01-15T08:47:35;108.47;;;66.83;;
10651;SDS011;5374;42.742;23.266;2024-01-15T08:50:24;116.17;;;65.00;;
10651;SDS011;5374;42.742;23.266;2024-01-15T08:53:11;108.17;;;66.17;;
10651;SDS011;5374;42.742;23.266;2024-01-15T08:55:58;103.43;;;66.03;;
10651;SDS011;5374;42.742;23.266;2024-01-15T08:58:46;106.80;;;65.53;;
10651;SDS011;5374;42.742;23.266;2024-01-15T09:01:33;105.50;;;65.43;;
10651;SDS011;5374;42.742;23.266;2024-01-15T09:04:20;109.17;;;66.13;;
10651;SDS011;5374;42.742;23.266;2024-01-15T09:07:09;107.60;;;65.90;;
10651;SDS011;5374;42.742;23.266;2024-01-15T09:09:56;113.63;;;71.00;;
10651;SDS011;5374;42.742;23.266;2024-01-15T09:12:44;119.63;;;73.50;;
10651;SDS011;5374;42.742;23.266;2024-01-15T09:15:31;122.97;;;77.43;;
10651;SDS011;5374;42.742;23.266;2024-01-15T09:18:19;128.27;;;79.03;;
10651;SDS011;5374;42.742;23.266;2024-01-15T09:21:06;119.13;;;74.63;;
10651;SDS011;5374;42.742;23.266;2024-01-15T09:23:55;125.53;;;77.73;;
10651;SDS011;5374;42.742;23.266;2024-01-15T09:26:42;121.70;;;79.20;;
10651;SDS011;5374;42.742;23.266;2024-01-15T09:29:30;121.17;;;75.30;;
10651;SDS011;5374;42.742;23.266;2024-01-15T09:32:17;117.17;;;72.00;;
10651;SDS011;5374;42.742;23.266;2024-01-15T09:35:05;117.07;;;71.63;;
10651;SDS011;5374;42.742;23.266;2024-01-15T09:37:52;106.57;;;60.67;;
10651;SDS011;5374;42.742;23.266;2024-01-15T09:40:42;80.67;;;51.27;;
10651;SDS011;5374;42.742;23.266;2024-01-15T09:43:31;84.33;;;50.70;;
10651;SDS011;5374;42.742;23.266;2024-01-15T09:46:19;76.33;;;48.17;;
10651;SDS011;5374;42.742;23.266;2024-01-15T09:49:07;71.03;;;48.17;;
10651;SDS011;5374;42.742;23.266;2024-01-15T09:51:56;86.53;;;59.43;;
10651;SDS011;5374;42.742;23.266;2024-01-15T09:54:44;71.67;;;49.37;;
10651;SDS011;5374;42.742;23.266;2024-01-15T09:57:34;74.17;;;48.67;;
10651;SDS011;5374;42.742;23.266;2024-01-15T10:00:22;76.57;;;49.07;;
10651;SDS011;5374;42.742;23.266;2024-01-15T10:03:10;66.97;;;46.27;;
10651;SDS011;5374;42.742;23.266;2024-01-15T10:05:58;62.20;;;41.13;;
10651;SDS011;5374;42.742;23.266;2024-01-15T10:08:47;63.60;;;42.70;;
10651;SDS011;5374;42.742;23.266;2024-01-15T10:11:35;89.40;;;57.27;;
10651;SDS011;5374;42.742;23.266;2024-01-15T10:14:24;74.57;;;50.10;;
10651;SDS011;5374;42.742;23.266;2024-01-15T10:17:11;69.27;;;45.03;;
10651;SDS011;5374;42.742;23.266;2024-01-15T10:20:00;58.87;;;40.53;;
10651;SDS011;5374;42.742;23.266;2024-01-15T10:22:49;51.50;;;35.07;;
10651;SDS011;5374;42.742;23.266;2024-01-15T10:25:37;63.63;;;37.83;;
10651;SDS011;5374;42.742;23.266;2024-01-15T10:28:26;72.80;;;41.97;;
10651;SDS011;5374;42.742;23.266;2024-01-15T10:31:17;61.10;;;40.50;;
10651;SDS011;5374;42.742;23.266;2024-01-15T10:34:10;59.43;;;40.77;;
10651;SDS011;5374;42.742;23.266;2024-01-15T10:37:01;56.10;;;37.90;;
10651;SDS011;5374;42.742;23.266;2024-01-15T10:40:06;52.73;;;34.37;;
10651;SDS011;5374;42.742;23.266;2024-01-15T10:42:57;52.23;;;36.07;;
10651;SDS011;5374;42.742;23.266;2024-01-15T10:45:49;46.30;;;29.17;;
10651;SDS011;5374;42.742;23.266;2024-01-15T10:48:39;43.83;;;32.63;;
10651;SDS011;5374;42.742;23.266;2024-01-15T10:51:26;47.27;;;31.07;;
10651;SDS011;5374;42.742;23.266;2024-01-15T10:54:13;37.13;;;24.93;;
10651;SDS011;5374;42.742;23.266;2024-01-15T10:57:01;42.40;;;27.47;;
10651;SDS011;5374;42.742;23.266;2024-01-15T10:59:49;36.40;;;24.30;;
10651;SDS011;5374;42.742;23.266;2024-01-15T11:02:36;38.00;;;23.73;;
10651;SDS011;5374;42.742;23.266;2024-01-15T11:05:25;30.20;;;21.60;;
10651;SDS011;5374;42.742;23.266;2024-01-15T11:08:12;28.43;;;19.70;;
10651;SDS011;5374;42.742;23.266;2024-01-15T11:11:04;35.53;;;23.20;;
10651;SDS011;5374;42.742;23.266;2024-01-15T11:13:51;32.83;;;23.17;;
10651;SDS011;5374;42.742;23.266;2024-01-15T11:16:54;32.17;;;21.40;;
10651;SDS011;5374;42.742;23.266;2024-01-15T11:19:43;33.53;;;20.90;;
10651;SDS011;5374;42.742;23.266;2024-01-15T11:25:44;33.40;;;21.63;;
10651;SDS011;5374;42.742;23.266;2024-01-15T11:28:47;25.37;;;18.00;;
10651;SDS011;5374;42.742;23.266;2024-01-15T11:34:54;44.80;;;27.30;;
10651;SDS011;5374;42.742;23.266;2024-01-15T11:37:57;37.23;;;24.87;;
10651;SDS011;5374;42.742;23.266;2024-01-15T11:40:45;23.43;;;15.70;;
10651;SDS011;5374;42.742;23.266;2024-01-15T11:43:33;26.07;;;16.80;;
10651;SDS011;5374;42.742;23.266;2024-01-15T11:46:20;25.87;;;15.83;;
10651;SDS011;5374;42.742;23.266;2024-01-15T11:49:08;27.33;;;18.07;;
10651;SDS011;5374;42.742;23.266;2024-01-15T11:52:06;20.77;;;14.60;;
10651;SDS011;5374;42.742;23.266;2024-01-15T11:54:59;19.53;;;14.20;;
10651;SDS011;5374;42.742;23.266;2024-01-15T11:57:49;28.93;;;19.03;;
10651;SDS011;5374;42.742;23.266;2024-01-15T12:00:40;34.83;;;18.77;;
10651;SDS011;5374;42.742;23.266;2024-01-15T12:03:31;24.53;;;15.67;;
10651;SDS011;5374;42.742;23.266;2024-01-15T12:06:20;30.60;;;18.27;;
10651;SDS011;5374;42.742;23.266;2024-01-15T12:09:08;24.60;;;17.53;;
10651;SDS011;5374;42.742;23.266;2024-01-15T12:11:57;21.10;;;15.80;;
10651;SDS011;5374;42.742;23.266;2024-01-15T12:14:51;34.03;;;19.73;;
10651;SDS011;5374;42.742;23.266;2024-01-15T12:17:38;32.23;;;19.57;;
10651;SDS011;5374;42.742;23.266;2024-01-15T12:20:26;35.70;;;21.63;;
10651;SDS011;5374;42.742;23.266;2024-01-15T12:23:13;33.13;;;18.47;;
10651;SDS011;5374;42.742;23.266;2024-01-15T12:26:02;30.43;;;18.47;;
10651;SDS011;5374;42.742;23.266;2024-01-15T12:28:51;29.87;;;19.07;;
10651;SDS011;5374;42.742;23.266;2024-01-15T12:31:38;29.30;;;17.80;;
10651;SDS011;5374;42.742;23.266;2024-01-15T12:34:28;31.67;;;18.10;;
10651;SDS011;5374;42.742;23.266;2024-01-15T12:37:17;33.70;;;19.37;;
10651;SDS011;5374;42.742;23.266;2024-01-15T12:40:06;27.00;;;20.60;;
10651;SDS011;5374;42.742;23.266;2024-01-15T12:42:55;33.77;;;21.27;;
10651;SDS011;5374;42.742;23.266;2024-01-15T12:45:44;35.00;;;22.90;;
10651;SDS011;5374;42.742;23.266;2024-01-15T12:48:31;37.17;;;22.63;;
10651;SDS011;5374;42.742;23.266;2024-01-15T12:51:18;34.73;;;22.27;;
10651;SDS011;5374;42.742;23.266;2024-01-15T12:54:05;33.73;;;22.77;;
10651;SDS011;5374;42.742;23.266;2024-01-15T12:56:53;43.50;;;24.03;;
10651;SDS011;5374;42.742;23.266;2024-01-15T12:59:40;35.57;;;22.33;;
10651;SDS011;5374;42.742;23.266;2024-01-15T13:02:28;36.27;;;22.73;;
10651;SDS011;5374;42.742;23.266;2024-01-15T13:05:15;41.27;;;27.10;;
10651;SDS011;5374;42.742;23.266;2024-01-15T13:08:03;42.87;;;28.73;;
10651;SDS011;5374;42.742;23.266;2024-01-15T13:10:51;45.90;;;27.00;;
10651;SDS011;5374;42.742;23.266;2024-01-15T13:13:41;37.07;;;24.10;;
10651;SDS011;5374;42.742;23.266;2024-01-15T13:16:29;46.07;;;26.30;;
10651;SDS011;5374;42.742;23.266;2024-01-15T13:19:18;45.00;;;28.47;;
10651;SDS011;5374;42.742;23.266;2024-01-15T13:22:07;44.07;;;28.37;;
10651;SDS011;5374;42.742;23.266;2024-01-15T13:24:54;40.70;;;26.33;;
10651;SDS011;5374;42.742;23.266;2024-01-15T13:27:41;131.97;;;73.67;;
10651;SDS011;5374;42.742;23.266;2024-01-15T13:30:29;53.80;;;34.27;;
10651;SDS011;5374;42.742;23.266;2024-01-15T13:33:16;59.63;;;36.00;;
10651;SDS011;5374;42.742;23.266;2024-01-15T13:36:06;74.00;;;48.93;;
10651;SDS011;5374;42.742;23.266;2024-01-15T13:38:55;63.40;;;41.67;;
10651;SDS011;5374;42.742;23.266;2024-01-15T13:41:43;72.20;;;44.20;;
10651;SDS011;5374;42.742;23.266;2024-01-15T13:44:30;75.73;;;40.37;;
10651;SDS011;5374;42.742;23.266;2024-01-15T13:47:18;69.20;;;37.73;;
10651;SDS011;5374;42.742;23.266;2024-01-15T13:50:06;62.43;;;38.33;;
10651;SDS011;5374;42.742;23.266;2024-01-15T13:52:55;245.43;;;142.20;;
10651;SDS011;5374;42.742;23.266;2024-01-15T13:55:42;78.80;;;49.57;;
10651;SDS011;5374;42.742;23.266;2024-01-15T13:58:30;65.43;;;41.97;;
10651;SDS011;5374;42.742;23.266;2024-01-15T14:01:18;86.80;;;48.90;;
10651;SDS011;5374;42.742;23.266;2024-01-15T14:04:05;87.60;;;48.20;;
10651;SDS011;5374;42.742;23.266;2024-01-15T14:06:52;89.83;;;49.20;;
10651;SDS011;5374;42.742;23.266;2024-01-15T14:09:41;102.60;;;62.70;;
10651;SDS011;5374;42.742;23.266;2024-01-15T14:12:28;81.10;;;50.93;;
10651;SDS011;5374;42.742;23.266;2024-01-15T14:15:15;85.17;;;49.57;;
10651;SDS011;5374;42.742;23.266;2024-01-15T14:18:04;80.50;;;50.90;;
10651;SDS011;5374;42.742;23.266;2024-01-15T14:20:51;91.97;;;52.90;;
10651;SDS011;5374;42.742;23.266;2024-01-15T14:23:39;101.17;;;62.57;;
10651;SDS011;5374;42.742;23.266;2024-01-15T14:26:28;121.47;;;77.90;;
10651;SDS011;5374;42.742;23.266;2024-01-15T14:29:15;113.20;;;69.87;;
10651;SDS011;5374;42.742;23.266;2024-01-15T14:32:04;113.97;;;76.80;;
10651;SDS011;5374;42.742;23.266;2024-01-15T14:34:52;98.10;;;63.97;;
10651;SDS011;5374;42.742;23.266;2024-01-15T14:37:39;111.60;;;84.13;;
10651;SDS011;5374;42.742;23.266;2024-01-15T14:40:26;99.83;;;69.30;;
10651;SDS011;5374;42.742;23.266;2024-01-15T14:43:15;96.10;;;59.27;;
10651;SDS011;5374;42.742;23.266;2024-01-15T14:46:02;150.73;;;87.77;;
10651;SDS011;5374;42.742;23.266;2024-01-15T14:48:49;109.80;;;64.90;;
10651;SDS011;5374;42.742;23.266;2024-01-15T14:51:36;129.37;;;72.93;;
10651;SDS011;5374;42.742;23.266;2024-01-15T14:54:24;119.33;;;70.30;;
10651;SDS011;5374;42.742;23.266;2024-01-15T14:57:11;129.50;;;85.87;;
10651;SDS011;5374;42.742;23.266;2024-01-15T14:59:59;134.83;;;82.30;;
10651;SDS011;5374;42.742;23.266;2024-01-15T15:02:47;105.33;;;60.90;;
10651;SDS011;5374;42.742;23.266;2024-01-15T15:05:34;102.87;;;57.00;;
10651;SDS011;5374;42.742;23.266;2024-01-15T15:08:21;93.50;;;51.77;;
10651;SDS011;5374;42.742;23.266;2024-01-15T15:11:08;82.37;;;53.10;;
10651;SDS011;5374;42.742;23.266;2024-01-15T15:13:56;80.80;;;49.53;;
10651;SDS011;5374;42.742;23.266;2024-01-15T15:16:45;73.43;;;45.80;;
10651;SDS011;5374;42.742;23.266;2024-01-15T15:19:33;77.83;;;46.60;;
10651;SDS011;5374;42.742;23.266;2024-01-15T15:22:20;84.43;;;47.87;;
10651;SDS011;5374;42.742;23.266;2024-01-15T15:25:08;85.63;;;49.43;;
10651;SDS011;5374;42.742;23.266;2024-01-15T15:27:56;90.40;;;53.20;;
10651;SDS011;5374;42.742;23.266;2024-01-15T15:30:43;93.73;;;55.70;;
10651;SDS011;5374;42.742;23.266;2024-01-15T15:33:32;112.33;;;60.33;;
10651;SDS011;5374;42.742;23.266;2024-01-15T15:36:19;109.90;;;61.23;;
10651;SDS011;5374;42.742;23.266;2024-01-15T15:39:07;57.27;;;34.23;;
10651;SDS011;5374;42.742;23.266;2024-01-15T15:41:54;64.97;;;36.60;;
10651;SDS011;5374;42.742;23.266;2024-01-15T15:44:41;53.30;;;34.33;;
10651;SDS011;5374;42.742;23.266;2024-01-15T15:47:31;53.80;;;34.83;;
10651;SDS011;5374;42.742;23.266;2024-01-15T15:50:20;47.87;;;32.90;;
10651;SDS011;5374;42.742;23.266;2024-01-15T15:53:07;57.53;;;33.83;;
10651;SDS011;5374;42.742;23.266;2024-01-15T15:55:55;68.40;;;40.77;;
10651;SDS011;5374;42.742;23.266;2024-01-15T15:58:42;67.77;;;40.37;;
10651;SDS011;5374;42.742;23.266;2024-01-15T16:01:29;55.30;;;35.53;;
10651;SDS011;5374;42.742;23.266;2024-01-15T16:04:16;47.57;;;31.60;;
10651;SDS011;5374;42.742;23.266;2024-01-15T16:07:06;55.83;;;32.47;;
10651;SDS011;5374;42.742;23.266;2024-01-15T16:09:55;48.53;;;34.87;;
10651;SDS011;5374;42.742;23.266;2024-01-15T16:12:42;48.03;;;31.77;;
10651;SDS011;5374;42.742;23.266;2024-01-15T16:15:30;42.57;;;29.93;;
10651;SDS011;5374;42.742;23.266;2024-01-15T16:18:18;47.07;;;30.50;;
10651;SDS011;5374;42.742;23.266;2024-01-15T16:21:05;52.17;;;31.37;;